Time;durP1;ratioP1;P1;durP2;ratioP2;P2;SDS_P1;SDS_P2;PMS_P1;PMS_P2;Temp;Humidity;BMP_temperature;BMP_pressure;BME280_temperature;BME280_humidity;BME280_pressure;Samples;Min_cycle;Max_cycle;Signal;HPM_P1;HPM_P2
2023/06/04 00:02:11;;;;;;;;;12.67;11.67;26.00;48.10;;;;;;111269;1238;49101;-68
2023/06/04 00:04:38;;;;;;;;;11.00;10.00;26.00;47.90;;;;;;111194;1243;53877;-68
2023/06/04 00:07:05;;;;;;;;;10.75;10.00;26.00;48.20;;;;;;111244;1243;45800;-69
2023/06/04 00:09:32;;;;;;;;;12.00;9.00;26.00;48.00;;;;;;111289;1240;49479;-68
2023/06/04 00:11:59;;;;;;;;;10.75;9.75;26.00;48.00;;;;;;111328;1240;50086;-68
2023/06/04 00:14:26;;;;;;;;;13.00;10.25;26.00;48.00;;;;;;111319;1243;53712;-67
2023/06/04 00:16:53;;;;;;;;;11.33;10.00;26.00;48.20;;;;;;111251;1238;44924;-68
2023/06/04 00:19:20;;;;;;;;;13.00;12.00;26.00;48.00;;;;;;111418;1241;49471;-68
2023/06/04 00:21:47;;;;;;;;;13.67;11.00;26.00;48.20;;;;;;111225;1239;49989;-69
2023/06/04 00:24:14;;;;;;;;;11.25;10.00;25.90;47.90;;;;;;111385;1241;54646;-68
2023/06/04 00:26:41;;;;;;;;;11.00;10.00;25.90;48.00;;;;;;111240;1238;45185;-68
2023/06/04 00:29:08;;;;;;;;;12.25;10.00;25.90;48.20;;;;;;111207;1239;48929;-68
2023/06/04 00:31:35;;;;;;;;;13.25;11.75;25.90;47.90;;;;;;111330;1243;49306;-69
2023/06/04 00:34:05;;;;;;;;;12.00;11.00;25.90;48.10;;;;;;111254;1243;53316;-69
2023/06/04 00:36:32;;;;;;;;;11.75;10.75;25.90;47.90;;;;;;111235;1243;45062;-70
2023/06/04 00:38:59;;;;;;;;;11.00;10.00;25.80;47.90;;;;;;111432;1241;49066;-68
2023/06/04 00:41:26;;;;;;;;;11.67;10.33;25.90;48.20;;;;;;111210;1239;49295;-69
2023/06/04 00:43:56;;;;;;;;;10.75;9.50;25.80;48.00;;;;;;111426;1238;54296;-69
2023/06/04 00:46:25;;;;;;;;;12.00;11.00;25.80;47.80;;;;;;111330;1238;45265;-69
2023/06/04 00:48:52;;;;;;;;;12.00;11.00;25.80;47.80;;;;;;111384;1243;49565;-68
2023/06/04 00:51:20;;;;;;;;;10.50;9.50;25.80;47.70;;;;;;111477;1238;49216;-68
2023/06/04 00:53:51;;;;;;;;;9.00;8.00;25.80;47.30;;;;;;111205;1238;54134;-69
2023/06/04 00:56:19;;;;;;;;;12.00;10.00;25.80;47.70;;;;;;111394;1240;44521;-68
2023/06/04 00:58:46;;;;;;;;;10.00;9.00;25.80;47.90;;;;;;111390;1238;48886;-68
2023/06/04 01:01:25;;;;;;;;;12.00;11.00;25.80;47.60;;;;;;111233;1244;49570;-68
2023/06/04 01:03:55;;;;;;;;;11.75;10.75;25.80;47.70;;;;;;111473;1238;53567;-69
2023/06/04 01:06:35;;;;;;;;;12.00;11.00;25.80;47.90;;;;;;111333;1243;44957;-69
2023/06/04 01:09:02;;;;;;;;;10.00;9.00;25.80;47.70;;;;;;111279;1243;49718;-69
2023/06/04 01:11:36;;;;;;;;;12.00;10.75;25.80;47.70;;;;;;111306;1243;50001;-69
2023/06/04 01:14:08;;;;;;;;;10.75;9.50;25.80;47.70;;;;;;111257;1240;53521;-68
2023/06/04 01:16:42;;;;;;;;;11.00;10.00;25.80;47.70;;;;;;111315;1243;45298;-68
2023/06/04 01:19:49;;;;;;;;;11.00;10.00;25.80;47.60;;;;;;111362;1243;49732;-69
2023/06/04 01:22:51;;;;;;;;;10.00;9.00;25.80;47.60;;;;;;110567;1241;1139857;-69
2023/06/04 01:25:26;;;;;;;;;9.00;8.00;25.80;47.60;;;;;;111294;1238;53851;-68
2023/06/04 01:27:56;;;;;;;;;9.75;8.25;25.80;47.70;;;;;;111500;1244;44831;-68
2023/06/04 01:30:31;;;;;;;;;10.25;9.25;25.70;47.60;;;;;;111365;1243;48675;-69
2023/06/04 01:33:00;;;;;;;;;10.00;9.00;25.70;47.10;;;;;;111403;1238;49379;-69
2023/06/04 01:35:28;;;;;;;;;12.00;11.00;25.80;47.80;;;;;;111361;1240;53603;-69
2023/06/04 01:37:56;;;;;;;;;11.50;10.50;25.80;47.60;;;;;;111423;1239;44284;-68
2023/06/04 01:40:24;;;;;;;;;13.75;12.50;25.80;47.60;;;;;;111159;1241;48876;-69
2023/06/04 01:42:52;;;;;;;;;11.75;10.75;25.70;47.50;;;;;;111248;1238;50535;-69
2023/06/04 01:45:23;;;;;;;;;10.50;9.25;25.70;47.50;;;;;;111449;1238;53592;-68
2023/06/04 01:47:52;;;;;;;;;12.00;11.00;25.70;47.60;;;;;;111401;1237;44244;-68
2023/06/04 01:50:20;;;;;;;;;10.00;9.00;25.70;47.60;;;;;;111472;1241;48855;-68
2023/06/04 01:52:47;;;;;;;;;11.00;10.00;25.70;47.60;;;;;;111274;1238;49916;-71
2023/06/04 01:55:15;;;;;;;;;12.33;10.00;25.60;47.60;;;;;;111340;1243;53879;-69
2023/06/04 01:57:43;;;;;;;;;11.25;10.25;25.60;47.60;;;;;;111395;1244;44600;-68
2023/06/04 02:00:12;;;;;;;;;11.00;10.00;25.60;47.60;;;;;;111288;1243;48879;-68
2023/06/04 02:02:41;;;;;;;;;10.67;9.67;25.60;47.60;;;;;;111343;1238;49687;-68
2023/06/04 02:05:09;;;;;;;;;10.50;9.50;25.60;47.60;;;;;;111229;1243;54685;-68
2023/06/04 02:07:38;;;;;;;;;9.50;8.50;25.60;47.60;;;;;;111231;1243;44794;-68
2023/06/04 02:10:09;;;;;;;;;11.00;10.00;25.60;47.50;;;;;;111213;1238;48735;-69
2023/06/04 02:12:38;;;;;;;;;11.75;10.50;25.60;47.50;;;;;;111258;1243;49959;-69
2023/06/04 02:15:07;;;;;;;;;10.00;9.00;25.60;47.60;;;;;;111449;1238;54846;-69
2023/06/04 02:17:37;;;;;;;;;11.00;10.00;25.60;47.60;;;;;;111220;1243;44478;-69
2023/06/04 02:20:05;;;;;;;;;10.00;9.00;25.60;47.60;;;;;;111175;1240;49752;-69
2023/06/04 02:22:33;;;;;;;;;12.00;10.75;25.60;47.50;;;;;;111316;1239;49575;-70
2023/06/04 02:25:00;;;;;;;;;10.25;9.00;25.60;47.50;;;;;;111341;1241;54175;-71
2023/06/04 02:27:27;;;;;;;;;9.25;8.50;25.60;47.60;;;;;;111291;1244;44506;-68
2023/06/04 02:29:55;;;;;;;;;10.75;9.50;25.50;47.50;;;;;;111272;1238;48562;-69
2023/06/04 02:32:22;;;;;;;;;13.00;12.00;25.50;47.50;;;;;;111459;1241;49315;-69
2023/06/04 02:34:49;;;;;;;;;9.75;8.75;25.50;47.60;;;;;;111313;1243;53333;-69
2023/06/04 02:37:16;;;;;;;;;11.33;10.00;25.50;47.60;;;;;;111310;1243;44671;-69
2023/06/04 02:39:44;;;;;;;;;9.75;8.75;25.50;47.50;;;;;;111258;1243;48851;-68
2023/06/04 02:42:10;;;;;;;;;9.50;8.50;25.50;47.60;;;;;;111432;1241;50068;-68
2023/06/04 02:44:37;;;;;;;;;10.50;9.50;25.50;47.50;;;;;;111268;1240;53819;-68
2023/06/04 02:47:05;;;;;;;;;12.00;9.00;25.50;47.60;;;;;;111241;1238;44555;-69
2023/06/04 02:49:32;;;;;;;;;9.25;8.00;25.50;47.50;;;;;;111344;1238;49476;-68
2023/06/04 02:51:59;;;;;;;;;10.25;9.50;25.50;47.50;;;;;;111401;1241;49514;-68
2023/06/04 02:54:26;;;;;;;;;10.00;9.00;25.50;47.60;;;;;;111254;1243;54229;-69
2023/06/04 02:56:53;;;;;;;;;8.75;7.75;25.50;47.60;;;;;;111400;1241;44588;-68
2023/06/04 02:59:20;;;;;;;;;9.00;8.00;25.50;47.60;;;;;;111294;1238;49349;-68
2023/06/04 03:01:48;;;;;;;;;10.00;9.00;25.50;47.60;;;;;;111494;1241;49108;-68
2023/06/04 03:04:15;;;;;;;;;10.00;9.00;25.50;47.60;;;;;;111259;1243;54734;-69
2023/06/04 03:06:46;;;;;;;;;10.75;9.75;25.50;48.10;;;;;;111245;1238;44460;-70
2023/06/04 03:09:13;;;;;;;;;12.00;10.00;25.40;47.60;;;;;;111223;1243;49389;-68
2023/06/04 03:11:40;;;;;;;;;12.25;11.00;25.50;47.60;;;;;;111298;1243;49944;-69
2023/06/04 03:14:07;;;;;;;;;10.00;9.25;25.50;47.60;;;;;;111220;1241;53950;-69
2023/06/04 03:16:34;;;;;;;;;9.67;8.67;25.40;47.60;;;;;;111239;1240;45299;-69
2023/06/04 03:19:01;;;;;;;;;11.50;10.50;25.40;47.50;;;;;;111213;1240;48875;-68
2023/06/04 03:21:29;;;;;;;;;9.00;8.00;25.40;47.50;;;;;;111215;1238;49004;-68
2023/06/04 03:23:56;;;;;;;;;11.00;10.00;25.40;47.50;;;;;;111233;1244;54148;-68
2023/06/04 03:26:23;;;;;;;;;10.00;9.00;25.40;47.60;;;;;;111281;1240;44235;-69
2023/06/04 03:28:50;;;;;;;;;10.75;9.75;25.40;47.50;;;;;;111213;1240;50432;-69
2023/06/04 03:31:17;;;;;;;;;9.25;8.25;25.40;47.50;;;;;;111211;1244;49690;-68
2023/06/04 03:33:44;;;;;;;;;11.50;8.75;25.40;47.50;;;;;;111303;1243;53973;-68
2023/06/04 03:36:11;;;;;;;;;9.75;8.75;25.40;47.50;;;;;;111400;1241;44891;-69
2023/06/04 03:38:38;;;;;;;;;10.33;9.00;25.40;47.60;;;;;;111225;1244;49414;-69
2023/06/04 03:41:05;;;;;;;;;9.00;8.00;25.40;47.50;;;;;;111212;1243;49391;-69
2023/06/04 03:43:32;;;;;;;;;11.00;10.00;25.40;47.50;;;;;;111231;1244;53403;-69
2023/06/04 03:45:59;;;;;;;;;10.75;9.75;25.40;47.50;;;;;;111202;1240;44569;-69
2023/06/04 03:48:26;;;;;;;;;13.50;9.75;25.40;47.50;;;;;;111213;1244;49553;-69
2023/06/04 03:50:53;;;;;;;;;11.00;10.00;25.40;47.50;;;;;;111205;1243;49966;-69
2023/06/04 03:53:20;;;;;;;;;10.25;9.00;25.40;47.50;;;;;;111256;1240;53822;-68
2023/06/04 03:55:47;;;;;;;;;10.75;9.75;25.40;47.50;;;;;;111213;1241;45587;-69
2023/06/04 03:58:14;;;;;;;;;10.25;9.50;25.40;47.50;;;;;;111215;1244;49705;-70
2023/06/04 04:00:41;;;;;;;;;12.67;11.67;25.40;47.50;;;;;;111266;1244;49229;-69
2023/06/04 04:03:09;;;;;;;;;13.00;11.33;25.40;47.50;;;;;;111218;1244;54097;-68
2023/06/04 04:05:37;;;;;;;;;12.67;10.33;25.40;47.50;;;;;;111268;1240;44789;-68
2023/06/04 04:08:05;;;;;;;;;11.75;10.25;25.40;47.60;;;;;;111233;1240;48983;-67
2023/06/04 04:10:32;;;;;;;;;11.00;9.75;25.40;47.50;;;;;;111282;1244;50389;-68
2023/06/04 04:12:59;;;;;;;;;9.67;8.67;25.40;47.40;;;;;;111203;1241;54598;-68
2023/06/04 04:15:26;;;;;;;;;10.75;9.75;25.40;47.40;;;;;;111305;1243;44836;-68
2023/06/04 04:17:55;;;;;;;;;10.50;9.00;25.40;47.50;;;;;;111239;1241;49498;-68
2023/06/04 04:20:22;;;;;;;;;11.75;10.75;25.40;47.50;;;;;;111247;1238;49758;-67
2023/06/04 04:22:49;;;;;;;;;10.00;9.00;25.40;47.50;;;;;;111243;1243;54685;-68
2023/06/04 04:25:17;;;;;;;;;11.00;9.25;25.40;47.50;;;;;;111294;1244;44281;-68
2023/06/04 04:27:44;;;;;;;;;10.00;9.00;25.30;47.50;;;;;;111303;1238;49547;-69
2023/06/04 04:30:12;;;;;;;;;10.25;9.00;25.30;47.40;;;;;;111358;1243;49107;-68
2023/06/04 04:32:48;;;;;;;;;9.00;8.00;25.30;48.00;;;;;;111262;1238;53490;-68
2023/06/04 04:35:17;;;;;;;;;9.00;8.00;25.30;47.40;;;;;;111319;1238;44900;-68
2023/06/04 04:37:45;;;;;;;;;11.00;10.00;25.30;47.50;;;;;;111272;1238;48978;-68
2023/06/04 04:40:14;;;;;;;;;10.75;9.75;25.30;47.40;;;;;;111235;1238;48887;-68
2023/06/04 04:42:42;;;;;;;;;11.75;10.75;25.30;47.40;;;;;;111257;1238;53973;-69
2023/06/04 04:45:10;;;;;;;;;10.67;9.33;25.30;47.40;;;;;;111346;1243;44287;-68
2023/06/04 04:47:37;;;;;;;;;10.00;9.00;25.30;47.60;;;;;;111289;1243;49009;-67
2023/06/04 04:50:05;;;;;;;;;11.00;10.00;25.30;47.40;;;;;;111276;1239;49787;-68
2023/06/04 04:52:32;;;;;;;;;12.00;10.00;25.30;47.40;;;;;;111293;1238;55485;-68
2023/06/04 04:54:59;;;;;;;;;11.67;10.00;25.30;47.60;;;;;;111276;1238;45822;-68
2023/06/04 04:57:26;;;;;;;;;10.00;9.00;25.30;47.40;;;;;;111304;1242;50076;-68
2023/06/04 04:59:53;;;;;;;;;10.00;9.00;25.30;47.00;;;;;;111328;1238;49339;-68
2023/06/04 05:02:20;;;;;;;;;10.00;9.00;25.20;47.60;;;;;;111259;1244;53509;-68
2023/06/04 05:04:47;;;;;;;;;10.50;9.50;25.20;47.90;;;;;;111251;1242;44963;-68
2023/06/04 05:07:14;;;;;;;;;9.75;8.75;25.20;47.70;;;;;;111256;1244;49420;-68
2023/06/04 05:09:43;;;;;;;;;9.00;8.00;25.20;47.70;;;;;;111234;1243;49062;-69
2023/06/04 05:12:10;;;;;;;;;10.33;9.00;25.20;47.40;;;;;;111230;1238;53651;-69
2023/06/04 05:14:38;;;;;;;;;10.75;9.75;25.20;47.50;;;;;;111287;1245;44346;-68
2023/06/04 05:17:06;;;;;;;;;10.75;9.75;25.20;47.50;;;;;;111318;1241;49876;-69
2023/06/04 05:19:33;;;;;;;;;11.00;9.75;25.20;47.50;;;;;;111318;1240;49559;-69
2023/06/04 05:22:00;;;;;;;;;10.00;8.00;25.20;47.50;;;;;;111303;1244;54341;-69
2023/06/04 05:24:28;;;;;;;;;11.00;10.00;25.20;47.60;;;;;;111314;1240;45566;-68
2023/06/04 05:26:57;;;;;;;;;10.00;8.67;25.20;47.50;;;;;;111286;1244;50229;-69
2023/06/04 05:29:24;;;;;;;;;11.00;9.75;25.20;47.50;;;;;;111311;1241;49360;-68
2023/06/04 05:31:51;;;;;;;;;11.25;10.00;25.20;47.60;;;;;;111197;1238;53216;-69
2023/06/04 05:34:18;;;;;;;;;11.75;10.75;25.20;47.70;;;;;;111219;1244;45025;-68
2023/06/04 05:36:45;;;;;;;;;11.50;10.50;25.20;47.50;;;;;;111137;1245;49645;-68
2023/06/04 05:39:13;;;;;;;;;9.00;8.00;25.20;47.50;;;;;;111220;1244;49260;-68
2023/06/04 05:41:41;;;;;;;;;12.00;11.00;25.20;47.50;;;;;;111290;1244;53394;-68
2023/06/04 05:44:08;;;;;;;;;10.67;9.67;25.20;47.50;;;;;;111337;1244;45362;-68
2023/06/04 05:46:35;;;;;;;;;10.50;9.50;25.20;47.60;;;;;;111223;1244;49779;-67
2023/06/04 05:49:02;;;;;;;;;11.67;8.67;25.20;47.60;;;;;;111311;1238;50399;-68
2023/06/04 05:51:29;;;;;;;;;9.00;8.00;25.20;47.60;;;;;;111142;1241;53537;-66
2023/06/04 05:53:56;;;;;;;;;10.25;8.00;25.20;47.60;;;;;;111229;1244;45675;-67
2023/06/04 05:56:23;;;;;;;;;10.00;9.00;25.10;47.50;;;;;;111186;1244;49781;-68
2023/06/04 05:58:53;;;;;;;;;9.50;8.50;25.20;47.60;;;;;;111230;1242;48909;-68
2023/06/04 06:01:21;;;;;;;;;9.00;8.00;25.20;47.80;;;;;;111321;1244;53859;-68
2023/06/04 06:03:48;;;;;;;;;10.50;9.50;25.20;47.60;;;;;;111308;1240;45551;-69
2023/06/04 06:06:15;;;;;;;;;10.00;9.00;25.20;47.60;;;;;;111262;1244;49723;-70
2023/06/04 06:08:43;;;;;;;;;10.00;9.00;25.20;47.60;;;;;;111324;1244;49443;-68
2023/06/04 06:11:10;;;;;;;;;10.25;9.50;25.20;47.60;;;;;;111208;1244;54158;-68
2023/06/04 06:13:37;;;;;;;;;9.00;8.00;25.20;47.50;;;;;;111222;1241;45200;-69
2023/06/04 06:16:04;;;;;;;;;11.00;10.00;25.20;47.50;;;;;;111349;1241;48458;-69
2023/06/04 06:18:31;;;;;;;;;10.75;9.25;25.20;47.60;;;;;;111315;1238;49829;-68
2023/06/04 06:20:59;;;;;;;;;11.75;9.75;25.20;47.60;;;;;;111461;1241;54074;-67
2023/06/04 06:23:26;;;;;;;;;9.00;8.00;25.20;47.60;;;;;;111388;1243;45056;-69
2023/06/04 06:25:53;;;;;;;;;9.00;8.00;25.30;47.80;;;;;;111356;1239;49037;-68
2023/06/04 06:28:20;;;;;;;;;12.00;11.00;25.20;47.80;;;;;;111390;1238;49136;-68
2023/06/04 06:30:47;;;;;;;;;11.50;10.25;25.30;47.60;;;;;;111230;1238;54012;-68
2023/06/04 06:33:14;;;;;;;;;11.00;10.00;25.30;47.80;;;;;;111234;1243;44929;-68
2023/06/04 06:35:41;;;;;;;;;8.75;7.75;25.30;47.60;;;;;;111347;1241;49621;-68
2023/06/04 06:38:08;;;;;;;;;10.75;9.75;25.30;47.20;;;;;;111297;1240;50421;-68
2023/06/04 06:40:35;;;;;;;;;9.25;8.25;25.30;47.60;;;;;;111397;1241;53517;-69
2023/06/04 06:43:02;;;;;;;;;11.00;8.75;25.30;47.60;;;;;;111416;1238;44415;-68
2023/06/04 06:45:29;;;;;;;;;12.67;10.67;25.30;47.80;;;;;;111299;1243;48873;-69
2023/06/04 06:47:56;;;;;;;;;10.67;9.67;25.30;47.70;;;;;;111433;1240;49290;-68
2023/06/04 06:50:23;;;;;;;;;11.75;10.75;25.30;47.60;;;;;;111304;1238;54105;-69
2023/06/04 06:52:50;;;;;;;;;9.00;8.00;25.30;47.60;;;;;;111276;1238;45102;-68
2023/06/04 06:55:17;;;;;;;;;12.00;11.00;25.30;47.60;;;;;;111278;1243;48305;-68
2023/06/04 06:57:45;;;;;;;;;10.75;9.75;25.30;47.80;;;;;;111298;1243;48519;-68
2023/06/04 07:00:13;;;;;;;;;9.50;8.50;25.30;47.60;;;;;;111261;1238;53376;-68
2023/06/04 07:02:39;;;;;;;;;9.25;8.50;25.30;47.60;;;;;;111274;1238;44632;-68
2023/06/04 07:05:07;;;;;;;;;11.25;10.25;25.40;47.80;;;;;;111462;1238;48815;-69
2023/06/04 07:07:35;;;;;;;;;11.25;10.00;25.40;47.70;;;;;;111080;1241;48567;-68
2023/06/04 07:10:03;;;;;;;;;9.00;8.00;25.40;47.60;;;;;;111235;1243;54805;-68
2023/06/04 07:12:30;;;;;;;;;10.75;9.75;25.40;47.60;;;;;;111441;1241;44908;-68
2023/06/04 07:14:57;;;;;;;;;9.00;8.00;25.40;47.80;;;;;;111234;1240;49901;-68
2023/06/04 07:17:24;;;;;;;;;10.50;9.00;25.50;47.60;;;;;;111311;1243;49054;-67
2023/06/04 07:19:51;;;;;;;;;10.25;9.00;25.50;47.60;;;;;;111232;1238;53371;-67
2023/06/04 07:22:18;;;;;;;;;10.75;9.75;25.50;47.60;;;;;;111221;1238;44485;-68
2023/06/04 07:24:47;;;;;;;;;10.75;9.75;25.50;47.80;;;;;;111264;1238;48739;-68
2023/06/04 07:27:15;;;;;;;;;9.00;8.00;25.50;47.80;;;;;;111228;1243;49761;-68
2023/06/04 07:29:45;;;;;;;;;12.00;9.50;25.50;47.80;;;;;;111197;1244;53556;-67
2023/06/04 07:32:12;;;;;;;;;9.25;8.00;25.60;47.80;;;;;;111252;1242;45471;-68
2023/06/04 07:34:39;;;;;;;;;9.00;8.00;25.50;47.60;;;;;;111246;1240;48684;-69
2023/06/04 07:37:07;;;;;;;;;11.00;10.00;25.60;47.80;;;;;;111341;1244;48689;-68
2023/06/04 07:39:35;;;;;;;;;10.75;9.50;25.60;47.60;;;;;;111500;1238;53251;-67
2023/06/04 07:42:02;;;;;;;;;11.67;9.67;25.60;47.80;;;;;;111314;1243;44342;-67
2023/06/04 07:44:29;;;;;;;;;10.00;9.00;25.60;47.60;;;;;;111500;1238;49136;-68
2023/06/04 07:46:56;;;;;;;;;8.50;7.75;25.60;47.60;;;;;;111295;1241;49218;-69
2023/06/04 07:49:23;;;;;;;;;9.00;8.00;25.70;47.80;;;;;;111331;1241;54391;-68
2023/06/04 07:51:50;;;;;;;;;9.75;8.75;25.70;47.60;;;;;;111489;1238;44605;-69
2023/06/04 07:54:17;;;;;;;;;9.25;8.25;25.70;47.80;;;;;;111474;1238;48935;-68
2023/06/04 07:56:44;;;;;;;;;9.25;8.25;25.70;47.60;;;;;;111291;1243;48520;-68
2023/06/04 07:59:11;;;;;;;;;11.67;10.67;25.80;47.70;;;;;;111249;1243;53496;-69
2023/06/04 08:01:38;;;;;;;;;11.00;10.00;25.80;47.70;;;;;;111260;1243;44523;-68
2023/06/04 08:04:05;;;;;;;;;10.75;8.75;25.90;47.70;;;;;;111199;1238;49959;-67
2023/06/04 08:06:33;;;;;;;;;10.00;9.00;25.90;47.70;;;;;;111391;1241;49011;-69
2023/06/04 08:08:59;;;;;;;;;13.00;8.25;25.90;47.90;;;;;;111219;1239;53468;-68
2023/06/04 08:11:26;;;;;;;;;8.75;7.75;25.90;47.70;;;;;;111234;1243;44428;-68
2023/06/04 08:13:53;;;;;;;;;9.25;8.00;25.90;47.60;;;;;;111211;1238;49227;-68
2023/06/04 08:16:20;;;;;;;;;11.50;9.00;25.90;47.70;;;;;;111460;1237;50071;-68
2023/06/04 08:18:47;;;;;;;;;11.00;9.00;25.90;47.60;;;;;;111273;1243;54021;-69
2023/06/04 08:21:16;;;;;;;;;10.00;9.00;26.00;47.60;;;;;;111289;1240;44706;-68
2023/06/04 08:23:43;;;;;;;;;10.75;8.25;26.00;47.80;;;;;;111506;1241;49472;-68
2023/06/04 08:26:10;;;;;;;;;9.00;8.00;26.10;47.90;;;;;;111367;1243;49598;-67
2023/06/04 08:28:38;;;;;;;;;10.25;9.00;26.10;47.70;;;;;;111436;1243;54563;-67
2023/06/04 08:31:05;;;;;;;;;9.00;8.00;26.10;47.60;;;;;;111250;1240;45632;-68
2023/06/04 08:33:32;;;;;;;;;9.00;8.00;26.20;47.60;;;;;;111240;1238;50032;-68
2023/06/04 08:35:59;;;;;;;;;10.00;9.00;26.20;48.20;;;;;;111288;1238;49318;-67
2023/06/04 08:38:26;;;;;;;;;9.67;8.67;26.20;47.70;;;;;;111334;1244;54038;-67
2023/06/04 08:40:58;;;;;;;;;10.00;8.75;26.30;47.60;;;;;;111353;1239;44833;-68
2023/06/04 08:43:25;;;;;;;;;9.75;8.75;26.30;47.60;;;;;;111463;1241;49889;-68
2023/06/04 08:45:59;;;;;;;;;10.67;9.67;26.30;47.60;;;;;;111376;1238;49045;-69
2023/06/04 08:48:27;;;;;;;;;11.00;10.00;26.40;47.60;;;;;;111335;1238;53859;-67
2023/06/04 08:50:57;;;;;;;;;10.75;9.75;26.40;47.50;;;;;;111229;1241;44223;-67
2023/06/04 08:53:24;;;;;;;;;9.00;8.00;26.40;47.50;;;;;;111258;1244;49172;-67
2023/06/04 08:55:53;;;;;;;;;10.00;9.00;26.40;47.50;;;;;;111228;1243;51326;-68
2023/06/04 08:58:20;;;;;;;;;11.75;9.00;26.50;47.50;;;;;;111254;1244;54242;-67
2023/06/04 09:00:47;;;;;;;;;10.00;9.00;26.50;47.50;;;;;;111202;1244;45630;-69
2023/06/04 09:03:15;;;;;;;;;9.00;8.00;26.50;47.40;;;;;;111244;1243;48888;-69
2023/06/04 09:05:47;;;;;;;;;11.00;10.00;26.50;47.50;;;;;;111492;1239;49282;-69
2023/06/04 09:08:18;;;;;;;;;9.75;8.75;26.50;47.40;;;;;;111258;1243;53709;-68
2023/06/04 09:10:51;;;;;;;;;10.00;8.75;26.60;47.40;;;;;;111459;1239;45717;-68
2023/06/04 09:13:19;;;;;;;;;8.25;7.00;26.60;47.40;;;;;;111262;1238;49486;-67
2023/06/04 09:16:04;;;;;;;;;9.75;8.75;26.70;47.40;;;;;;111269;1239;50414;-69
2023/06/04 09:18:31;;;;;;;;;9.50;8.25;26.70;47.40;;;;;;111418;1238;55349;-68
2023/06/04 09:21:06;;;;;;;;;11.75;9.25;26.70;47.50;;;;;;111275;1238;44379;-67
2023/06/04 09:23:46;;;;;;;;;9.00;8.00;26.70;47.30;;;;;;111479;1238;50386;-68
2023/06/04 09:26:14;;;;;;;;;9.50;8.50;26.70;46.80;;;;;;111349;1243;50401;-68
2023/06/04 09:28:42;;;;;;;;;9.00;8.00;26.80;47.30;;;;;;111368;1241;54369;-68
2023/06/04 09:31:11;;;;;;;;;10.67;9.67;26.80;47.30;;;;;;111413;1241;44490;-67
2023/06/04 09:33:48;;;;;;;;;9.00;8.00;26.80;47.50;;;;;;111247;1238;49382;-68
2023/06/04 09:36:16;;;;;;;;;9.00;8.00;26.80;47.50;;;;;;111302;1239;49680;-68
2023/06/04 09:38:43;;;;;;;;;8.00;7.00;26.80;47.30;;;;;;111454;1243;53610;-68
2023/06/04 09:41:19;;;;;;;;;8.33;7.67;26.90;47.30;;;;;;111333;1238;45329;-68
2023/06/04 09:43:46;;;;;;;;;8.67;7.67;26.90;47.30;;;;;;111336;1238;49523;-68
2023/06/04 09:46:15;;;;;;;;;10.50;9.50;26.90;47.00;;;;;;111350;1241;49255;-69
2023/06/04 09:48:42;;;;;;;;;10.00;9.00;26.90;47.40;;;;;;111222;1240;53804;-68
2023/06/04 09:51:19;;;;;;;;;9.00;8.00;27.00;47.30;;;;;;111322;1243;45385;-68
2023/06/04 09:53:57;;;;;;;;;11.00;8.75;27.00;47.30;;;;;;111453;1238;49388;-69
2023/06/04 09:56:26;;;;;;;;;8.25;7.25;27.00;47.30;;;;;;111310;1240;49159;-69
2023/06/04 09:59:01;;;;;;;;;10.00;9.00;27.00;47.20;;;;;;111252;1238;54689;-68
2023/06/04 10:01:29;;;;;;;;;8.00;7.00;27.00;47.20;;;;;;111299;1239;44335;-68
2023/06/04 10:04:01;;;;;;;;;9.00;7.50;27.10;47.40;;;;;;111256;1238;49704;-69
2023/06/04 10:06:33;;;;;;;;;9.00;8.00;27.10;47.20;;;;;;111294;1238;50215;-68
2023/06/04 10:09:10;;;;;;;;;9.00;8.00;27.20;47.20;;;;;;111291;1243;53301;-68
2023/06/04 10:11:44;;;;;;;;;8.25;7.25;27.20;47.20;;;;;;111230;1240;45028;-67
2023/06/04 10:14:29;;;;;;;;;9.00;8.00;27.20;47.10;;;;;;111334;1238;49170;-68
2023/06/04 10:16:57;;;;;;;;;8.75;7.75;27.20;47.10;;;;;;111437;1241;50011;-68
2023/06/04 10:19:24;;;;;;;;;9.75;8.75;27.30;47.10;;;;;;111295;1240;53643;-69
2023/06/04 10:21:52;;;;;;;;;10.00;9.00;27.30;47.30;;;;;;111447;1238;45193;-68
2023/06/04 10:24:20;;;;;;;;;8.00;7.00;27.40;47.30;;;;;;111254;1243;49073;-68
2023/06/04 10:26:48;;;;;;;;;9.25;8.25;27.40;47.20;;;;;;111244;1239;49277;-68
2023/06/04 10:29:16;;;;;;;;;9.75;8.50;27.40;47.30;;;;;;111301;1238;54530;-68
2023/06/04 10:31:45;;;;;;;;;9.00;8.00;27.40;47.60;;;;;;111263;1241;44796;-68
2023/06/04 10:34:13;;;;;;;;;10.50;8.00;27.50;47.10;;;;;;111296;1238;49976;-69
2023/06/04 10:36:44;;;;;;;;;9.00;8.00;27.40;47.00;;;;;;111310;1243;49836;-69
2023/06/04 10:39:12;;;;;;;;;11.00;9.00;27.50;47.10;;;;;;111461;1238;53434;-68
2023/06/04 10:41:40;;;;;;;;;9.00;8.00;27.50;47.20;;;;;;111203;1243;45322;-67
2023/06/04 10:44:07;;;;;;;;;10.75;9.75;27.60;47.00;;;;;;111220;1243;48497;-68
2023/06/04 10:46:40;;;;;;;;;10.00;8.00;27.60;47.20;;;;;;111337;1241;49220;-68
2023/06/04 10:49:10;;;;;;;;;8.00;7.00;27.60;47.10;;;;;;111375;1242;54048;-68
2023/06/04 10:51:37;;;;;;;;;8.00;7.00;27.60;47.00;;;;;;111296;1240;45005;-68
2023/06/04 10:54:04;;;;;;;;;9.25;8.00;27.70;47.00;;;;;;111476;1238;48487;-67
2023/06/04 10:56:37;;;;;;;;;8.00;7.00;27.70;47.00;;;;;;111364;1238;49369;-68
2023/06/04 10:59:16;;;;;;;;;8.75;7.75;27.70;47.10;;;;;;111257;1241;53896;-68
2023/06/04 11:01:43;;;;;;;;;10.00;9.00;27.80;46.90;;;;;;111339;1243;44904;-68
2023/06/04 11:04:24;;;;;;;;;9.75;9.00;27.70;46.80;;;;;;111422;1242;49662;-68
2023/06/04 11:07:10;;;;;;;;;8.00;7.00;27.80;46.90;;;;;;111263;1238;49628;-68
2023/06/04 11:09:47;;;;;;;;;9.75;8.50;27.80;47.00;;;;;;111341;1241;54006;-68
2023/06/04 11:12:14;;;;;;;;;11.00;10.00;27.80;47.00;;;;;;111312;1241;44295;-69
2023/06/04 11:14:56;;;;;;;;;10.33;9.33;27.90;46.80;;;;;;111266;1238;49629;-69
2023/06/04 11:17:23;;;;;;;;;9.00;8.00;27.90;46.80;;;;;;111464;1241;49559;-69
2023/06/04 11:19:55;;;;;;;;;9.00;7.75;27.90;46.70;;;;;;111342;1238;53921;-68
2023/06/04 11:22:22;;;;;;;;;10.33;9.33;28.00;46.70;;;;;;111280;1239;44830;-68
2023/06/04 11:24:50;;;;;;;;;11.67;8.67;28.00;46.70;;;;;;111338;1244;48980;-68
2023/06/04 11:27:18;;;;;;;;;8.75;7.75;28.00;46.70;;;;;;111256;1239;51035;-68
2023/06/04 11:29:50;;;;;;;;;8.00;7.00;28.00;46.70;;;;;;111351;1243;54695;-68
2023/06/04 11:32:24;;;;;;;;;8.00;7.00;28.00;46.70;;;;;;111298;1238;44164;-69
2023/06/04 11:34:51;;;;;;;;;10.50;9.50;28.00;46.70;;;;;;111382;1238;48760;-68
2023/06/04 11:37:18;;;;;;;;;9.00;8.00;28.00;46.70;;;;;;111405;1238;48538;-69
2023/06/04 11:39:45;;;;;;;;;9.00;8.00;28.00;46.60;;;;;;111332;1240;54150;-67
2023/06/04 11:42:12;;;;;;;;;8.75;7.75;28.00;46.60;;;;;;111305;1243;44471;-67
2023/06/04 11:44:44;;;;;;;;;8.25;7.50;28.00;46.70;;;;;;111298;1241;48619;-68
2023/06/04 11:47:12;;;;;;;;;8.00;7.00;28.00;46.60;;;;;;111356;1238;49738;-68
2023/06/04 11:49:39;;;;;;;;;8.50;7.50;28.10;46.60;;;;;;111249;1243;53701;-68
2023/06/04 11:52:07;;;;;;;;;8.00;7.00;28.10;46.60;;;;;;111249;1244;44885;-68
2023/06/04 11:54:38;;;;;;;;;10.00;9.00;28.10;46.60;;;;;;111227;1240;49627;-68
2023/06/04 11:57:05;;;;;;;;;9.67;8.67;28.10;46.60;;;;;;111427;1243;48665;-68
2023/06/04 11:59:32;;;;;;;;;9.33;8.33;28.10;46.80;;;;;;111252;1244;53571;-69
2023/06/04 12:02:00;;;;;;;;;8.50;7.00;28.10;46.50;;;;;;111231;1243;44608;-68
2023/06/04 12:04:30;;;;;;;;;9.00;8.00;28.10;46.50;;;;;;111494;1241;49334;-68
2023/06/04 12:06:59;;;;;;;;;9.33;8.00;28.10;46.50;;;;;;111228;1239;49490;-69
2023/06/04 12:09:28;;;;;;;;;10.00;9.00;28.10;46.50;;;;;;111374;1243;54252;-68
2023/06/04 12:12:00;;;;;;;;;9.75;8.75;28.10;46.30;;;;;;111372;1238;45161;-70
2023/06/04 12:14:27;;;;;;;;;8.00;7.00;28.10;46.40;;;;;;111348;1243;49981;-68
2023/06/04 12:16:59;;;;;;;;;9.67;8.67;28.10;46.40;;;;;;111323;1243;49056;-68
2023/06/04 12:19:27;;;;;;;;;9.00;8.00;28.10;46.30;;;;;;111236;1238;54694;-68
2023/06/04 12:22:05;;;;;;;;;10.00;9.00;28.20;46.50;;;;;;106642;1243;3010967;-68
2023/06/04 12:24:37;;;;;;;;;8.75;7.50;28.20;46.60;;;;;;111387;1241;44073;-68
2023/06/04 12:27:09;;;;;;;;;10.75;8.75;28.20;46.50;;;;;;111319;1243;48891;-68
2023/06/04 12:29:37;;;;;;;;;9.50;8.50;28.20;46.40;;;;;;111238;1238;48979;-68
2023/06/04 12:32:11;;;;;;;;;9.00;8.00;28.20;46.60;;;;;;111408;1239;54148;-68
2023/06/04 12:34:43;;;;;;;;;9.50;8.50;28.20;46.40;;;;;;111286;1243;44687;-68
2023/06/04 12:37:10;;;;;;;;;9.00;8.00;28.20;46.90;;;;;;111279;1243;48550;-68